createdAt,value
2018-05-15T00:00:29.611Z,97.46
2018-05-15T00:01:29.609Z,98.03
2018-05-15T00:02:29.609Z,97.85
2018-05-15T00:03:29.609Z,97.66
2018-05-15T00:04:29.607Z,97.37
2018-05-15T00:05:29.605Z,97.66
2018-05-15T00:06:29.605Z,97.75
2018-05-15T00:07:29.604Z,97.27
2018-05-15T00:08:29.606Z,97.66
2018-05-15T00:09:29.602Z,97.94
2018-05-15T00:10:29.602Z,98.22
2018-05-15T00:11:29.600Z,97.37
2018-05-15T00:12:29.599Z,97.75
2018-05-15T00:13:29.600Z,97.03
2018-05-15T00:14:29.598Z,96.84
2018-05-15T00:15:29.597Z,96.46
2018-05-15T00:16:29.597Z,96.17
2018-05-15T00:17:29.594Z,97.22
2018-05-15T00:18:29.594Z,97.13
2018-05-15T00:19:29.593Z,96.46
2018-05-15T00:20:29.591Z,96.37
2018-05-15T00:21:29.590Z,95.79
2018-05-15T00:22:29.592Z,95.41
2018-05-15T00:23:29.589Z,96.17
2018-05-15T00:24:29.588Z,96.37
2018-05-15T00:25:29.586Z,95.70
2018-05-15T00:26:29.588Z,96.37
2018-05-15T00:27:29.586Z,95.79
2018-05-15T00:28:29.586Z,94.46
2018-05-15T00:29:29.584Z,94.17
2018-05-15T00:30:29.583Z,94.07
2018-05-15T00:31:29.583Z,94.93
2018-05-15T00:32:29.584Z,95.61
2018-05-15T00:33:29.582Z,95.32
2018-05-15T00:34:29.580Z,94.84
2018-05-15T00:35:29.581Z,94.74
2018-05-15T00:36:29.580Z,93.79
2018-05-15T00:37:29.579Z,93.88
2018-05-15T00:38:29.583Z,94.07
2018-05-15T00:39:29.578Z,94.74
2018-05-15T00:40:29.578Z,95.12
2018-05-15T00:41:29.580Z,95.22
2018-05-15T00:42:29.578Z,94.84
2018-05-15T00:43:29.575Z,94.84
2018-05-15T00:44:29.574Z,95.41
2018-05-15T00:45:29.576Z,95.22
2018-05-15T00:46:29.572Z,95.79
2018-05-15T00:47:29.571Z,95.37
2018-05-15T00:48:29.571Z,95.98
2018-05-15T00:49:29.569Z,95.61
2018-05-15T00:50:29.569Z,95.75
2018-05-15T00:51:29.569Z,95.51
2018-05-15T00:52:29.567Z,95.46
2018-05-15T00:53:29.567Z,95.56
2018-05-15T00:54:29.566Z,96.41
2018-05-15T00:55:29.564Z,96.32
2018-05-15T00:56:29.567Z,96.13
2018-05-15T00:57:29.564Z,96.98
2018-05-15T00:58:29.563Z,95.98
2018-05-15T00:59:29.563Z,96.17
2018-05-15T01:00:29.562Z,96.41
2018-05-15T01:01:29.561Z,96.22
2018-05-15T01:02:29.560Z,95.46
2018-05-15T01:03:29.560Z,95.65
2018-05-15T01:04:29.559Z,95.65
2018-05-15T01:05:29.557Z,95.65
2018-05-15T01:06:29.556Z,95.65
2018-05-15T01:07:29.556Z,95.84
2018-05-15T01:08:29.554Z,95.56
2018-05-15T01:09:29.553Z,95.08
2018-05-15T01:10:29.553Z,94.98
2018-05-15T01:11:29.553Z,94.98
2018-05-15T01:12:29.555Z,94.98
2018-05-15T01:13:29.550Z,94.79
2018-05-15T01:14:29.551Z,94.89
2018-05-15T01:15:29.550Z,95.56
2018-05-15T01:16:29.548Z,95.56
2018-05-15T01:17:29.547Z,95.56
2018-05-15T01:18:29.547Z,95.56
2018-05-15T01:19:29.551Z,95.56
2018-05-15T01:20:29.547Z,95.37
2018-05-15T01:21:29.544Z,95.56
2018-05-15T01:22:29.543Z,96.61
2018-05-15T01:23:29.543Z,96.61
2018-05-15T01:24:29.541Z,96.98
2018-05-15T01:25:29.541Z,96.89
2018-05-15T01:26:29.541Z,97.37
2018-05-15T01:27:29.539Z,97.66
2018-05-15T01:28:29.538Z,97.17
2018-05-15T01:29:29.537Z,96.80
2018-05-15T01:30:29.535Z,96.70
2018-05-15T01:31:29.537Z,96.98
2018-05-15T01:32:29.534Z,96.80
2018-05-15T01:33:29.532Z,96.70
2018-05-15T01:34:29.535Z,97.56
2018-05-15T01:35:29.533Z,97.27
2018-05-15T01:36:29.532Z,96.80
2018-05-15T01:37:29.530Z,96.80
2018-05-15T01:38:29.528Z,96.98
2018-05-15T01:39:29.531Z,97.56
2018-05-15T01:40:29.527Z,96.98
2018-05-15T01:41:29.525Z,97.56
2018-05-15T01:42:29.526Z,96.98
2018-05-15T01:43:29.525Z,96.61
2018-05-15T01:44:29.522Z,96.22
2018-05-15T01:45:29.522Z,95.27
2018-05-15T01:46:29.521Z,94.60
2018-05-15T01:47:29.519Z,95.56
2018-05-15T01:48:29.520Z,95.17
2018-05-15T01:49:29.517Z,94.51
2018-05-15T01:50:29.516Z,94.51
2018-05-15T01:51:29.516Z,95.08
2018-05-15T01:52:29.515Z,95.65
2018-05-15T01:53:29.526Z,95.46
2018-05-15T01:54:29.514Z,96.03
2018-05-15T01:55:29.512Z,96.70
2018-05-15T01:56:29.513Z,96.41
2018-05-15T01:57:29.508Z,97.08
2018-05-15T01:58:29.508Z,96.89
2018-05-15T01:59:29.506Z,96.22
2018-05-15T02:00:29.506Z,96.41
2018-05-15T02:01:29.503Z,95.84
2018-05-15T02:02:29.503Z,96.41
2018-05-15T02:03:29.502Z,97.08
2018-05-15T02:04:29.502Z,96.80
2018-05-15T02:05:29.500Z,96.80
2018-05-15T02:06:29.498Z,96.41
2018-05-15T02:07:29.498Z,96.03
2018-05-15T02:08:29.498Z,96.89
2018-05-15T02:09:29.496Z,97.08
2018-05-15T02:10:29.498Z,96.32
2018-05-15T02:11:29.495Z,96.32
2018-05-15T02:12:29.494Z,96.41
2018-05-15T02:13:29.491Z,95.75
2018-05-15T02:14:29.491Z,95.84
2018-05-15T02:15:29.489Z,95.84
2018-05-15T02:16:29.488Z,95.56
2018-05-15T02:17:29.486Z,95.27
2018-05-15T02:18:29.487Z,94.60
2018-05-15T02:19:29.485Z,94.60
2018-05-15T02:20:29.484Z,95.08
2018-05-15T02:21:29.482Z,94.79
2018-05-15T02:22:29.483Z,94.27
2018-05-15T02:23:29.483Z,94.07
2018-05-15T02:24:29.482Z,93.88
2018-05-15T02:25:29.480Z,94.17
2018-05-15T02:26:29.479Z,94.07
2018-05-15T02:27:29.478Z,94.03
2018-05-15T02:28:29.478Z,94.07
2018-05-15T02:29:29.476Z,93.88
2018-05-15T02:30:29.486Z,93.22
2018-05-15T02:31:29.476Z,92.07
2018-05-15T02:32:29.474Z,92.74
2018-05-15T02:33:29.484Z,92.65
2018-05-15T02:34:29.473Z,93.27
2018-05-15T02:35:29.471Z,93.27
2018-05-15T02:36:29.471Z,93.93
2018-05-15T02:37:29.469Z,93.55
2018-05-15T02:38:29.468Z,93.65
2018-05-15T02:39:29.469Z,93.46
2018-05-15T02:40:29.468Z,92.88
2018-05-15T02:41:29.465Z,92.60
2018-05-15T02:42:29.465Z,92.60
2018-05-15T02:43:29.464Z,92.79
2018-05-15T02:44:29.464Z,93.46
2018-05-15T02:45:29.462Z,93.17
2018-05-15T02:46:29.464Z,92.69
2018-05-15T02:47:29.461Z,93.08
2018-05-15T02:48:29.460Z,93.36
2018-05-15T02:49:29.459Z,92.98
2018-05-15T02:50:29.459Z,93.36
2018-05-15T02:51:29.458Z,92.69
2018-05-15T02:52:29.457Z,92.98
2018-05-15T02:53:29.456Z,93.17
2018-05-15T02:54:29.456Z,93.27
2018-05-15T02:55:29.453Z,93.46
2018-05-15T02:56:29.465Z,93.46
2018-05-15T02:57:29.452Z,93.27
2018-05-15T02:58:29.451Z,93.27
2018-05-15T02:59:29.455Z,93.08
2018-05-15T03:00:29.450Z,93.17
2018-05-15T03:01:29.449Z,93.17
2018-05-15T03:02:29.448Z,93.17
2018-05-15T03:03:29.447Z,93.36
2018-05-15T03:04:29.445Z,93.46
2018-05-15T03:05:29.447Z,93.55
2018-05-15T03:06:29.446Z,93.27
2018-05-15T03:07:29.448Z,93.55
2018-05-15T03:08:29.442Z,94.32
2018-05-15T03:09:29.445Z,93.27
2018-05-15T03:10:29.443Z,93.74
2018-05-15T03:11:29.440Z,93.36
2018-05-15T03:12:29.439Z,93.55
2018-05-15T03:13:29.438Z,94.12
2018-05-15T03:14:29.436Z,94.03
2018-05-15T03:15:29.435Z,93.93
2018-05-15T03:16:29.436Z,93.74
2018-05-15T03:17:29.433Z,93.93
2018-05-15T03:18:29.433Z,94.22
2018-05-15T03:19:29.433Z,94.79
2018-05-15T03:20:29.432Z,94.22
2018-05-15T03:21:29.429Z,94.12
2018-05-15T03:22:29.430Z,93.46
2018-05-15T03:23:29.427Z,94.12
2018-05-15T03:24:29.429Z,93.93
2018-05-15T03:25:29.426Z,94.12
2018-05-15T03:26:29.424Z,94.60
2018-05-15T03:27:29.426Z,95.17
2018-05-15T03:28:29.465Z,94.98
2018-05-15T03:29:29.423Z,94.51
2018-05-15T03:30:29.422Z,94.60
2018-05-15T03:31:29.420Z,94.60
2018-05-15T03:32:29.420Z,94.41
2018-05-15T03:33:29.419Z,94.89
2018-05-15T03:34:29.418Z,94.98
2018-05-15T03:35:29.417Z,94.41
2018-05-15T03:36:29.416Z,93.74
2018-05-15T03:37:29.416Z,93.27
2018-05-15T03:38:29.414Z,93.46
2018-05-15T03:39:29.413Z,93.08
2018-05-15T03:40:29.415Z,92.79
2018-05-15T03:41:29.409Z,92.60
2018-05-15T03:42:29.410Z,92.79
2018-05-15T03:43:29.408Z,92.88
2018-05-15T03:44:29.408Z,92.60
2018-05-15T03:45:29.407Z,92.88
2018-05-15T03:46:29.405Z,93.51
2018-05-15T03:47:29.494Z,93.03
2018-05-15T03:48:29.405Z,93.03
2018-05-15T03:49:29.401Z,93.12
2018-05-15T03:50:29.402Z,93.51
2018-05-15T03:51:29.399Z,94.27
2018-05-15T03:52:29.402Z,93.88
2018-05-15T03:53:29.398Z,93.79
2018-05-15T03:54:29.396Z,93.98
2018-05-15T03:55:29.395Z,93.22
2018-05-15T03:56:29.394Z,93.88
2018-05-15T03:57:29.391Z,94.08
2018-05-15T03:58:29.391Z,94.08
2018-05-15T03:59:29.390Z,93.22
2018-05-15T04:00:29.389Z,94.08
2018-05-15T04:01:29.386Z,93.70
2018-05-15T04:02:29.390Z,93.60
2018-05-15T04:03:29.386Z,93.98
2018-05-15T04:04:29.383Z,94.27
2018-05-15T04:05:29.380Z,94.46
2018-05-15T04:06:29.379Z,94.65
2018-05-15T04:07:29.378Z,95.12
2018-05-15T04:08:29.384Z,94.17
2018-05-15T04:09:29.375Z,94.46
2018-05-15T04:10:29.373Z,94.08
2018-05-15T04:11:29.373Z,93.88
2018-05-15T04:12:29.375Z,94.08
2018-05-15T04:13:29.371Z,94.27
2018-05-15T04:14:29.368Z,94.37
2018-05-15T04:15:29.367Z,94.65
2018-05-15T04:16:29.367Z,94.84
2018-05-15T04:17:29.365Z,94.84
2018-05-15T04:18:29.362Z,94.32
2018-05-15T04:19:29.364Z,94.17
2018-05-15T04:20:29.366Z,94.98
2018-05-15T04:21:29.358Z,94.79
2018-05-15T04:22:29.358Z,94.79
2018-05-15T04:23:29.356Z,94.79
2018-05-15T04:24:29.355Z,94.79
2018-05-15T04:25:29.356Z,94.60
2018-05-15T04:26:29.351Z,94.70
2018-05-15T04:27:29.352Z,94.60
2018-05-15T04:28:29.412Z,95.17
2018-05-15T04:29:29.347Z,94.79
2018-05-15T04:30:29.348Z,94.70
2018-05-15T04:31:29.346Z,94.70
2018-05-15T04:32:29.346Z,94.51
2018-05-15T04:33:29.343Z,94.56
2018-05-15T04:34:29.343Z,94.93
2018-05-15T04:35:29.340Z,94.60
2018-05-15T04:36:29.340Z,94.98
2018-05-15T04:37:29.338Z,94.51
2018-05-15T04:38:29.339Z,94.60
2018-05-15T04:39:29.335Z,94.98
2018-05-15T04:40:29.334Z,95.27
2018-05-15T04:41:29.332Z,95.94
2018-05-15T04:42:29.336Z,95.56
2018-05-15T04:43:29.349Z,95.56
2018-05-15T04:44:29.330Z,95.75
2018-05-15T04:45:29.328Z,95.65
2018-05-15T04:46:29.327Z,95.56
2018-05-15T04:47:29.326Z,96.03
2018-05-15T04:48:29.325Z,95.17
2018-05-15T04:49:29.323Z,94.51
2018-05-15T04:50:29.325Z,93.93
2018-05-15T04:51:29.322Z,94.32
2018-05-15T04:52:29.320Z,93.93
2018-05-15T04:53:29.319Z,94.32
2018-05-15T04:54:29.317Z,94.12
2018-05-15T04:55:29.317Z,94.03
2018-05-15T04:56:29.323Z,93.84
2018-05-15T04:57:29.314Z,93.65
2018-05-15T04:58:29.314Z,93.74
2018-05-15T04:59:29.312Z,94.03
2018-05-15T05:00:29.313Z,93.84
2018-05-15T05:01:29.311Z,94.12
2018-05-15T05:02:29.314Z,94.12
2018-05-15T05:03:29.310Z,94.41
2018-05-15T05:04:29.311Z,94.22
2018-05-15T05:05:29.306Z,94.03
2018-05-15T05:06:29.307Z,94.70
2018-05-15T05:07:29.305Z,94.98
2018-05-15T05:08:29.304Z,94.22
2018-05-15T05:09:29.305Z,94.79
2018-05-15T05:10:29.302Z,94.70
2018-05-15T05:11:29.305Z,94.70
2018-05-15T05:12:29.299Z,94.60
2018-05-15T05:13:29.299Z,94.98
2018-05-15T05:14:29.298Z,94.98
2018-05-15T05:15:29.296Z,95.08
2018-05-15T05:16:29.296Z,94.98
2018-05-15T05:17:29.294Z,94.60
2018-05-15T05:18:29.294Z,94.79
2018-05-15T05:19:29.292Z,94.60
2018-05-15T05:20:29.293Z,94.98
2018-05-15T05:21:29.290Z,94.51
2018-05-15T05:22:29.290Z,94.79
2018-05-15T05:23:29.289Z,94.22
2018-05-15T05:24:29.290Z,94.12
2018-05-15T05:25:29.286Z,94.12
2018-05-15T05:26:29.285Z,94.51
2018-05-15T05:27:29.287Z,94.41
2018-05-15T05:28:29.286Z,94.03
2018-05-15T05:29:29.283Z,93.65
2018-05-15T05:30:29.283Z,94.12
2018-05-15T05:31:29.282Z,94.17
2018-05-15T05:32:29.282Z,94.32
2018-05-15T05:33:29.281Z,94.36
2018-05-15T05:34:29.279Z,94.03
2018-05-15T05:35:29.278Z,94.41
2018-05-15T05:36:29.280Z,94.17
2018-05-15T05:37:29.276Z,94.12
2018-05-15T05:38:29.276Z,94.12
2018-05-15T05:39:29.276Z,94.65
2018-05-15T05:40:29.275Z,93.88
2018-05-15T05:41:29.274Z,94.17
2018-05-15T05:42:29.274Z,93.17
2018-05-15T05:43:29.272Z,94.41
2018-05-15T05:44:29.271Z,94.51
2018-05-15T05:45:29.271Z,93.31
2018-05-15T05:46:29.329Z,94.56
2018-05-15T05:47:29.269Z,94.89
2018-05-15T05:48:29.274Z,94.36
2018-05-15T05:49:29.268Z,94.27
2018-05-15T05:50:29.266Z,94.84
2018-05-15T05:51:29.268Z,94.65
2018-05-15T05:52:29.267Z,94.27
2018-05-15T05:53:29.272Z,94.07
2018-05-15T05:54:29.263Z,93.79
2018-05-15T05:55:29.264Z,93.88
2018-05-15T05:56:29.261Z,93.98
2018-05-15T05:57:29.273Z,93.79
2018-05-15T05:58:29.260Z,93.98
2018-05-15T05:59:29.259Z,93.79
2018-05-15T06:00:29.258Z,93.51
2018-05-15T06:01:29.257Z,94.17
2018-05-15T06:02:29.257Z,93.98
2018-05-15T06:03:29.256Z,94.07
2018-05-15T06:04:29.256Z,93.79
2018-05-15T06:05:29.255Z,93.70
2018-05-15T06:06:29.254Z,94.65
2018-05-15T06:07:29.279Z,94.36
2018-05-15T06:08:29.392Z,94.56
2018-05-15T06:09:29.256Z,94.36
2018-05-15T06:10:29.259Z,94.46
2018-05-15T06:11:29.251Z,94.36
2018-05-15T06:12:29.250Z,93.98
2018-05-15T06:13:29.248Z,94.07
2018-05-15T06:14:29.249Z,94.74
2018-05-15T06:15:29.249Z,95.22
2018-05-15T06:16:29.247Z,95.12
2018-05-15T06:17:29.247Z,95.70
2018-05-15T06:18:29.246Z,94.74
2018-05-15T06:19:29.244Z,94.56
2018-05-15T06:20:29.245Z,94.84
2018-05-15T06:21:29.243Z,94.84
2018-05-15T06:22:29.242Z,94.84
2018-05-15T06:23:29.246Z,94.84
2018-05-15T06:24:29.241Z,94.84
2018-05-15T06:25:29.241Z,94.84
2018-05-15T06:26:29.242Z,94.56
2018-05-15T06:27:29.349Z,94.56
2018-05-15T06:28:29.576Z,94.27
2018-05-15T06:29:29.239Z,94.56
2018-05-15T06:30:29.239Z,93.60
2018-05-15T06:31:29.241Z,93.41
2018-05-15T06:32:29.276Z,94.22
2018-05-15T06:33:29.236Z,93.65
2018-05-15T06:34:29.235Z,93.84
2018-05-15T06:35:29.235Z,93.31
2018-05-15T06:36:29.235Z,93.51
2018-05-15T06:37:29.237Z,93.41
2018-05-15T06:38:29.253Z,94.36
2018-05-15T06:39:29.236Z,93.60
2018-05-15T06:40:29.493Z,94.17
2018-05-15T06:41:29.230Z,94.07
2018-05-15T06:42:29.233Z,94.46
2018-05-15T06:43:29.232Z,94.27
2018-05-15T06:44:29.230Z,94.46
2018-05-15T06:45:29.229Z,94.07
2018-05-15T06:46:29.229Z,94.74
2018-05-15T06:47:29.229Z,94.74
2018-05-15T06:48:29.229Z,95.03
2018-05-15T06:49:29.227Z,94.36
2018-05-15T06:50:29.285Z,94.27
2018-05-15T06:51:29.227Z,94.65
2018-05-15T06:52:29.226Z,94.17
2018-05-15T06:53:29.225Z,93.79
2018-05-15T06:54:29.225Z,94.22
2018-05-15T06:55:29.224Z,93.74
2018-05-15T06:56:29.225Z,93.98
2018-05-15T06:57:29.305Z,93.31
2018-05-15T06:58:29.223Z,93.31
2018-05-15T06:59:29.320Z,93.60
2018-05-15T07:00:29.221Z,93.88
2018-05-15T07:01:29.221Z,94.17
2018-05-15T07:02:29.222Z,94.56
2018-05-15T07:03:29.220Z,94.36
2018-05-15T07:04:29.220Z,94.46
2018-05-15T07:05:29.335Z,93.88
2018-05-15T07:06:29.222Z,93.79
2018-05-15T07:07:29.218Z,93.70
2018-05-15T07:08:29.223Z,94.36
2018-05-15T07:09:29.253Z,93.31
2018-05-15T07:10:29.271Z,94.51
2018-05-15T07:11:29.217Z,94.27
2018-05-15T07:12:29.219Z,94.31
2018-05-15T07:13:29.215Z,94.22
2018-05-15T07:14:29.215Z,93.65
2018-05-15T07:15:29.214Z,92.97
2018-05-15T07:16:29.214Z,93.55
2018-05-15T07:17:29.213Z,93.74
2018-05-15T07:18:29.212Z,93.36
2018-05-15T07:19:29.221Z,93.65
2018-05-15T07:20:29.214Z,93.74
2018-05-15T07:21:29.211Z,93.65
2018-05-15T07:22:29.211Z,94.22
2018-05-15T07:23:29.212Z,94.12
2018-05-15T07:24:29.211Z,94.60
2018-05-15T07:25:29.210Z,94.41
2018-05-15T07:26:29.216Z,94.12
2018-05-15T07:27:29.280Z,94.22
2018-05-15T07:28:29.209Z,93.93
2018-05-15T07:29:29.210Z,93.84
2018-05-15T07:30:29.209Z,93.74
2018-05-15T07:31:29.208Z,94.03
2018-05-15T07:32:29.212Z,93.17
2018-05-15T07:33:29.207Z,93.55
2018-05-15T07:34:29.208Z,93.55
2018-05-15T07:35:29.208Z,93.46
2018-05-15T07:36:29.207Z,94.12
2018-05-15T07:37:29.207Z,93.74
2018-05-15T07:38:29.418Z,94.22
2018-05-15T07:39:29.205Z,94.31
2018-05-15T07:40:29.209Z,94.12
2018-05-15T07:41:29.205Z,94.03
2018-05-15T07:42:29.206Z,94.03
2018-05-15T07:43:29.206Z,94.12
2018-05-15T07:44:29.209Z,94.60
2018-05-15T07:45:29.205Z,94.41
2018-05-15T07:46:29.206Z,94.31
2018-05-15T07:47:29.205Z,93.84
2018-05-15T07:48:29.205Z,93.74
2018-05-15T07:49:29.205Z,93.36
2018-05-15T07:50:29.203Z,94.03
2018-05-15T07:51:29.205Z,94.22
2018-05-15T07:52:29.395Z,94.22
2018-05-15T07:53:29.203Z,93.93
2018-05-15T07:54:29.207Z,93.74
2018-05-15T07:55:29.204Z,93.36
2018-05-15T07:56:29.203Z,93.65
2018-05-15T07:57:29.220Z,93.93
2018-05-15T07:58:29.285Z,94.12
2018-05-15T07:59:29.203Z,93.93
2018-05-15T08:00:29.203Z,95.08
2018-05-15T08:01:29.204Z,94.31
2018-05-15T08:02:29.202Z,94.41
2018-05-15T08:03:29.202Z,94.22
2018-05-15T08:04:29.216Z,94.03
2018-05-15T08:05:29.202Z,94.03
2018-05-15T08:06:29.201Z,94.41
2018-05-15T08:07:29.200Z,93.79
2018-05-15T08:08:29.200Z,93.31
2018-05-15T08:09:29.200Z,92.93
2018-05-15T08:10:29.200Z,93.50
2018-05-15T08:11:29.203Z,92.93
2018-05-15T08:12:29.204Z,92.55
2018-05-15T08:13:29.199Z,93.02
2018-05-15T08:14:29.201Z,92.45
2018-05-15T08:15:29.200Z,92.36
2018-05-15T08:16:29.200Z,92.36
2018-05-15T08:17:29.201Z,92.74
2018-05-15T08:18:29.200Z,92.36
2018-05-15T08:19:29.205Z,92.16
2018-05-15T08:20:29.201Z,91.97
2018-05-15T08:21:29.200Z,91.59
2018-05-15T08:22:29.205Z,92.07
2018-05-15T08:23:29.201Z,92.36
2018-05-15T08:24:29.203Z,92.26
2018-05-15T08:25:29.202Z,92.36
2018-05-15T08:26:29.202Z,91.50
2018-05-15T08:27:29.205Z,92.11
2018-05-15T08:28:29.206Z,92.21
2018-05-15T08:29:29.209Z,90.97
2018-05-15T08:30:29.205Z,91.16
2018-05-15T08:31:29.202Z,91.64
2018-05-15T08:32:29.203Z,91.06
2018-05-15T08:33:29.204Z,91.25
2018-05-15T08:34:29.203Z,90.49
2018-05-15T08:35:29.205Z,90.68
2018-05-15T08:36:29.204Z,90.97
2018-05-15T08:37:29.223Z,90.97
2018-05-15T08:38:29.205Z,90.78
2018-05-15T08:39:29.208Z,90.39
2018-05-15T08:40:29.206Z,89.25
2018-05-15T08:41:29.209Z,89.73
2018-05-15T08:42:29.208Z,89.87
2018-05-15T08:43:29.210Z,88.33
2018-05-15T08:44:29.210Z,87.27
2018-05-15T08:45:29.249Z,85.55
2018-05-15T08:46:29.211Z,87.18
2018-05-15T08:47:29.213Z,86.61
2018-05-15T08:48:29.215Z,85.65
2018-05-15T08:49:29.216Z,84.31
2018-05-15T08:50:29.220Z,85.02
2018-05-15T08:51:29.234Z,83.97
2018-05-15T08:52:29.226Z,83.78
2018-05-15T08:53:29.230Z,84.74
2018-05-15T08:54:29.345Z,84.06
2018-05-15T08:55:29.229Z,82.73
2018-05-15T08:56:29.233Z,82.06
2018-05-15T08:57:29.233Z,82.78
2018-05-15T08:58:29.236Z,83.36
2018-05-15T08:59:29.554Z,85.17
2018-05-15T09:00:29.242Z,85.27
2018-05-15T09:01:29.245Z,84.50
2018-05-15T09:02:29.250Z,85.08
2018-05-15T09:03:29.257Z,83.73
2018-05-15T09:04:29.250Z,82.59
2018-05-15T09:05:29.574Z,84.17
2018-05-15T09:06:29.253Z,84.50
2018-05-15T09:07:29.254Z,85.03
2018-05-15T09:08:29.261Z,84.94
2018-05-15T09:09:29.257Z,82.93
2018-05-15T09:10:29.259Z,84.08
2018-05-15T09:11:29.261Z,84.94
2018-05-15T09:12:29.262Z,84.46
2018-05-15T09:13:29.264Z,83.79
2018-05-15T09:14:29.265Z,82.35
2018-05-15T09:15:29.267Z,82.93
2018-05-15T09:16:29.268Z,83.69
2018-05-15T09:17:29.269Z,82.83
2018-05-15T09:18:29.271Z,83.50
2018-05-15T09:19:29.762Z,83.79
2018-05-15T09:20:29.274Z,84.17
2018-05-15T09:21:29.274Z,83.69
2018-05-15T09:22:29.276Z,84.94
2018-05-15T09:23:29.277Z,85.71
2018-05-15T09:24:30.007Z,85.32
2018-05-15T09:25:29.297Z,84.36
2018-05-15T09:26:29.281Z,83.69
2018-05-15T09:27:29.285Z,84.75
2018-05-15T09:28:29.287Z,84.79
2018-05-15T09:29:29.284Z,83.64
2018-05-15T09:30:29.294Z,83.16
2018-05-15T09:31:29.289Z,82.30
2018-05-15T09:32:29.292Z,82.06
2018-05-15T09:33:29.293Z,82.06
2018-05-15T09:34:29.295Z,82.43
2018-05-15T09:35:29.297Z,82.38
2018-05-15T09:36:29.622Z,82.67
2018-05-15T09:37:29.527Z,82.19
2018-05-15T09:38:29.457Z,81.95
2018-05-15T09:39:29.669Z,79.11
2018-05-15T09:40:29.562Z,75.79
2018-05-15T09:41:29.314Z,74.58
2018-05-15T09:42:29.475Z,73.85
2018-05-15T09:43:29.326Z,72.60
2018-05-15T09:44:29.334Z,70.03
2018-05-15T09:45:29.333Z,70.51
2018-05-15T09:46:29.338Z,71.82
2018-05-15T09:47:29.347Z,72.59
2018-05-15T09:48:29.623Z,73.74
2018-05-15T09:49:29.350Z,72.45
2018-05-15T09:50:29.354Z,73.03
2018-05-15T09:51:29.359Z,72.84
2018-05-15T09:52:29.365Z,70.50
2018-05-15T09:53:29.368Z,72.61
2018-05-15T09:54:29.371Z,72.52
2018-05-15T09:55:29.376Z,73.95
2018-05-15T09:56:29.378Z,75.10
2018-05-15T09:57:29.381Z,76.15
2018-05-15T09:58:29.389Z,75.01
2018-05-15T09:59:29.390Z,74.72
2018-05-15T10:00:29.392Z,75.87
2018-05-15T10:01:29.394Z,76.06
2018-05-15T10:02:29.398Z,78.17
2018-05-15T10:03:29.400Z,76.02
2018-05-15T10:04:29.404Z,76.31
2018-05-15T10:05:29.405Z,78.13
2018-05-15T10:06:29.407Z,79.28
2018-05-15T10:07:29.409Z,78.70
2018-05-15T10:08:29.414Z,78.70
2018-05-15T10:09:29.414Z,79.57
2018-05-15T10:10:29.418Z,78.99
2018-05-15T10:11:29.420Z,77.84
2018-05-15T10:12:29.424Z,76.18
2018-05-15T10:13:29.424Z,77.19
2018-05-15T10:14:29.514Z,78.43
2018-05-15T10:15:29.514Z,79.96
2018-05-15T10:16:29.431Z,79.87
2018-05-15T10:17:29.440Z,80.16
2018-05-15T10:18:29.435Z,79.49
2018-05-15T10:19:29.437Z,79.77
2018-05-15T10:20:29.441Z,80.02
2018-05-15T10:21:29.448Z,80.21
2018-05-15T10:22:29.443Z,80.98
2018-05-15T10:23:29.444Z,80.11
2018-05-15T10:24:29.445Z,80.25
2018-05-15T10:25:29.445Z,81.02
2018-05-15T10:26:29.449Z,80.06
2018-05-15T10:27:29.449Z,80.98
2018-05-15T10:28:29.451Z,81.16
2018-05-15T10:29:29.451Z,80.98
2018-05-15T10:30:29.458Z,79.25
2018-05-15T10:31:29.906Z,78.68
2018-05-15T10:32:29.478Z,79.35
2018-05-15T10:33:29.517Z,79.64
2018-05-15T10:34:29.460Z,78.87
2018-05-15T10:35:29.458Z,78.87
2018-05-15T10:36:29.460Z,76.42
2018-05-15T10:37:29.459Z,75.91
2018-05-15T10:38:29.461Z,76.81
2018-05-15T10:39:29.464Z,77.57
2018-05-15T10:40:29.464Z,78.72
2018-05-15T10:41:29.463Z,79.44
2018-05-15T10:42:29.467Z,79.93
2018-05-15T10:43:29.467Z,79.83
2018-05-15T10:44:29.467Z,79.25
2018-05-15T10:45:29.469Z,77.34
2018-05-15T10:46:29.469Z,77.34
2018-05-15T10:47:29.471Z,78.01
2018-05-15T10:48:29.471Z,77.72
2018-05-15T10:49:29.473Z,77.53
2018-05-15T10:50:29.474Z,78.20
2018-05-15T10:51:29.475Z,79.83
2018-05-15T10:52:29.476Z,80.88
2018-05-15T10:53:29.476Z,82.37
2018-05-15T10:54:29.475Z,81.99
2018-05-15T10:55:29.478Z,82.65
2018-05-15T10:56:29.479Z,82.94
2018-05-15T10:57:29.478Z,83.80
2018-05-15T10:58:29.553Z,83.42
2018-05-15T10:59:29.494Z,81.99
2018-05-15T11:00:29.481Z,82.18
2018-05-15T11:01:29.479Z,82.71
2018-05-15T11:02:29.479Z,83.57
2018-05-15T11:03:29.481Z,84.52
2018-05-15T11:04:29.481Z,84.91
2018-05-15T11:05:29.483Z,85.19
2018-05-15T11:06:29.481Z,85.77
2018-05-15T11:07:29.482Z,86.15
2018-05-15T11:08:29.487Z,87.53
2018-05-15T11:09:29.481Z,83.18
2018-05-15T11:10:29.484Z,82.90
2018-05-15T11:11:29.483Z,83.42
2018-05-15T11:12:29.484Z,82.46
2018-05-15T11:13:29.485Z,81.93
2018-05-15T11:14:29.484Z,82.60
2018-05-15T11:15:29.486Z,82.22
2018-05-15T11:16:29.488Z,82.79
2018-05-15T11:17:29.488Z,84.03
2018-05-15T11:18:29.489Z,84.66
2018-05-15T11:19:29.565Z,85.38
2018-05-15T11:20:29.493Z,84.23
2018-05-15T11:21:29.494Z,79.25
2018-05-15T11:22:29.497Z,78.39
2018-05-15T11:23:29.498Z,80.40
2018-05-15T11:24:29.584Z,77.76
2018-05-15T11:25:29.501Z,78.43
2018-05-15T11:26:29.504Z,78.63
2018-05-15T11:27:29.505Z,80.06
2018-05-15T11:28:29.509Z,78.66
2018-05-15T11:29:29.763Z,77.23
2018-05-15T11:30:29.568Z,75.22
2018-05-15T11:31:29.516Z,72.83
2018-05-15T11:32:29.520Z,71.77
2018-05-15T11:33:29.850Z,71.68
2018-05-15T11:34:29.527Z,72.34
2018-05-15T11:35:29.531Z,72.09
2018-05-15T11:36:29.534Z,72.09
2018-05-15T11:37:29.540Z,71.84
2018-05-15T11:38:29.543Z,70.70
2018-05-15T11:39:29.547Z,69.39
2018-05-15T11:40:29.552Z,67.79
2018-05-15T11:41:29.586Z,66.19
2018-05-15T11:42:29.561Z,64.76
2018-05-15T11:43:29.566Z,64.72
2018-05-15T11:44:29.578Z,65.43
2018-05-15T11:45:29.577Z,65.78
2018-05-15T11:46:29.584Z,66.49
2018-05-15T11:47:29.618Z,64.47
2018-05-15T11:48:29.983Z,63.54
2018-05-15T11:49:30.429Z,64.69
2018-05-15T11:50:30.096Z,63.38
2018-05-15T11:51:30.450Z,63.16
2018-05-15T11:52:30.205Z,63.22
2018-05-15T11:53:29.623Z,64.18
2018-05-15T11:54:29.629Z,66.10
2018-05-15T11:55:35.291Z,64.18
2018-05-15T11:56:29.648Z,62.45
2018-05-15T11:57:29.857Z,62.33
2018-05-15T11:58:29.650Z,61.18
2018-05-15T11:59:29.709Z,62.87
2018-05-15T12:00:29.662Z,63.06
2018-05-15T12:01:29.669Z,63.64
2018-05-15T12:02:29.728Z,66.03
2018-05-15T12:03:29.677Z,67.57
2018-05-15T12:04:29.681Z,67.38
2018-05-15T12:05:29.686Z,64.12
2018-05-15T12:06:29.732Z,63.64
2018-05-15T12:07:29.696Z,63.83
2018-05-15T12:08:29.726Z,64.72
2018-05-15T12:09:29.704Z,63.67
2018-05-15T12:10:29.797Z,63.96
2018-05-15T12:11:29.995Z,64.31
2018-05-15T12:12:29.717Z,65.36
2018-05-15T12:13:29.719Z,66.61
2018-05-15T12:14:29.736Z,67.38
2018-05-15T12:15:29.727Z,65.94
2018-05-15T12:16:29.732Z,66.13
2018-05-15T12:17:29.734Z,66.61
2018-05-15T12:18:29.824Z,68.11
2018-05-15T12:19:29.741Z,68.87
2018-05-15T12:20:29.745Z,68.40
2018-05-15T12:21:29.747Z,68.01
2018-05-15T12:22:29.750Z,68.27
2018-05-15T12:23:29.754Z,69.42
2018-05-15T12:24:29.777Z,70.09
2018-05-15T12:25:29.759Z,71.87
2018-05-15T12:26:29.762Z,74.26
2018-05-15T12:27:29.764Z,73.97
2018-05-15T12:28:29.768Z,75.66
2018-05-15T12:29:29.775Z,77.76
2018-05-15T12:30:29.772Z,78.81
2018-05-15T12:31:29.772Z,79.25
2018-05-15T12:32:29.777Z,81.16
2018-05-15T12:33:29.777Z,82.70
2018-05-15T12:34:29.777Z,82.41
2018-05-15T12:35:29.780Z,79.73
2018-05-15T12:36:29.785Z,78.20
2018-05-15T12:37:29.784Z,77.92
2018-05-15T12:38:29.786Z,78.11
2018-05-15T12:39:29.786Z,79.25
2018-05-15T12:40:29.789Z,79.83
2018-05-15T12:41:29.867Z,79.73
2018-05-15T12:42:29.791Z,77.63
2018-05-15T12:43:29.792Z,77.72
2018-05-15T12:44:29.794Z,78.97
2018-05-15T12:45:29.795Z,79.54
2018-05-15T12:46:29.796Z,80.21
2018-05-15T12:47:30.039Z,79.16
2018-05-15T12:48:29.807Z,79.25
2018-05-15T12:49:29.799Z,79.12
2018-05-15T12:50:29.810Z,81.03
2018-05-15T12:51:29.803Z,81.41
2018-05-15T12:52:29.804Z,81.60